Home > Products > Valid Products > TAF

000
FTUS43 KLOT 011700
TAFORD
TAF
KORD 011740Z 0118/0224 24013G19KT P6SM SCT020 BKN080
     FM020000 24012KT P6SM VCSH SCT030 BKN050
     FM020300 27010KT P6SM BKN050
     FM021000 30008KT P6SM SCT040
     FM021700 27006KT P6SM SCT200=



000
FTUS43 KLOT 011700
TAFMDW
TAF
KMDW 011740Z 0118/0218 24012G19KT P6SM SCT020 BKN060
     FM020000 24012KT P6SM VCSH SCT030 BKN050
     FM020300 27010KT P6SM BKN050
     FM021000 30008KT P6SM SCT040
     FM021700 27006KT P6SM SCT200=



000
FTUS43 KLOT 011700
TAFDPA
TAF
KDPA 011740Z 0118/0218 24012G19KT P6SM SCT015 BKN040
     FM012300 24012KT P6SM VCSH SCT030 BKN050
     FM020200 27010KT P6SM BKN050
     FM021000 30008KT P6SM SCT040
     FM021700 27006KT P6SM SCT200=



000
FTUS43 KLOT 011700
TAFGYY
TAF
KGYY 011740Z 0118/0218 23015G22KT P6SM SCT030 BKN040
     FM020000 24012KT P6SM VCSH SCT030 BKN040
     FM020300 27010KT P6SM BKN040
     FM021000 30008KT P6SM SCT040
     FM021500 33006KT P6SM SCT200=



000
FTUS43 KLOT 011700
TAFRFD
TAF
KRFD 011740Z 0118/0218 24011G20KT P6SM FEW025 BKN050
     FM012300 24012KT P6SM VCSH BKN040
     FM020100 27008KT P6SM SCT040
     FM020800 30008KT P6SM SCT040
     FM021700 27006KT P6SM SCT200=



000
FTUS43 KLOT 011700
TAFGYY
TAF
KGYY 011740Z 0118/0218 23015G22KT P6SM SCT030 BKN040
     FM020000 24012KT P6SM VCSH SCT030 BKN040
     FM020300 27010KT P6SM BKN040
     FM021000 30008KT P6SM SCT040
     FM021500 33006KT P6SM SCT200=



000
FTUS43 KLOT 011600 AAB
TAFGYY
TAF AMD
KGYY 011609Z 0116/0212 18010G20KT 5SM BR OVC014
      TEMPO 0116/0118 SHRA SCT008 BKN010
     FM011800 23015G22KT P6SM SCT030 BKN040
     FM020000 24012KT P6SM VCSH SCT030 BKN040
     FM021000 30008KT P6SM SCT040=



000
FTUS43 KLOT 011600 AAB
TAFGYY
TAF AMD
KGYY 011609Z 0116/0212 18010G20KT 5SM BR OVC014
      TEMPO 0116/0118 SHRA SCT008 BKN010
     FM011800 23015G22KT P6SM SCT030 BKN040
     FM020000 24012KT P6SM VCSH SCT030 BKN040
     FM021000 30008KT P6SM SCT040=



000
FTUS43 KLOT 011600 AAB
TAFMDW
TAF AMD
KMDW 011609Z 0116/0212 23012G19KT P6SM SCT020 BKN040
      TEMPO 0116/0117 SHRA SCT008 BKN020
     FM020000 24012KT P6SM VCSH SCT030 BKN050
     FM020300 27010KT P6SM BKN050
     FM021000 30008KT P6SM SCT040=



000
FTUS43 KLOT 011600 AAB
TAFDPA
TAF AMD
KDPA 011609Z 0116/0212 24012G19KT P6SM SCT015 BKN040
      TEMPO 0116/0117 BKN015
     FM012300 24012KT P6SM VCSH SCT030 BKN050
     FM020200 27010KT P6SM BKN050
     FM021000 30008KT P6SM SCT040=



000
FTUS43 KLOT 011600 AAB
TAFORD
TAF AMD
KORD 011609Z 0116/0218 23013G19KT P6SM SCT020 BKN040
      TEMPO 0116/0117 SHRA SCT008 BKN012
     FM020000 24012KT P6SM VCSH SCT030 BKN050
     FM020300 27010KT P6SM BKN050
     FM021000 30008KT P6SM SCT040=



000
FTUS43 KLOT 011600 AAB
TAFRFD
TAF AMD
KRFD 011609Z 0116/0212 24011G20KT P6SM FEW025 BKN050
     FM012300 24012KT P6SM VCSH BKN040
     FM020100 27008KT P6SM SCT040
     FM020800 30008KT P6SM SCT040=



000
FTUS43 KLOT 011400 AAA
TAFORD
TAF AMD
KORD 011413Z 0114/0218 20010G20KT P6SM BKN013 OVC023
      TEMPO 0115/0118 SHRA SCT008 BKN011
     FM011800 23015G22KT P6SM SCT030 BKN050
     FM012300 24012KT P6SM SCT030 BKN050 PROB30 0123/0205 3SM TSRA
      SCT020 OVC040CB
     FM021000 30008KT P6SM SCT040=



000
FTUS43 KLOT 011400 AAA
TAFGYY
TAF AMD
KGYY 011413Z 0114/0212 18012KT 5SM BR OVC012
     FM011500 21013G20KT P6SM BKN012
      TEMPO 0115/0118 SHRA SCT008 BKN010
     FM011800 23015G22KT P6SM SCT030 BKN040
     FM020000 24012KT P6SM VCSH SCT030 BKN040 PROB30 0200/0206 3SM
      TSRA SCT020 OVC040CB
     FM021000 30008KT P6SM SCT040=



000
FTUS43 KLOT 011400 AAA
TAFRFD
TAF AMD
KRFD 011413Z 0114/0212 21006KT P6SM FEW007 SCT030 BKN050
     FM020000 27008KT P6SM SCT040
     FM020800 30008KT P6SM SCT040=



000
FTUS43 KLOT 011400 AAA
TAFMDW
TAF AMD
KMDW 011413Z 0114/0212 20013G20KT P6SM BKN013 OVC023
      TEMPO 0115/0118 SHRA SCT008 BKN011
     FM011800 23015G22KT P6SM SCT030 BKN050
     FM012300 24012KT P6SM SCT030 BKN050 PROB30 0123/0205 3SM TSRA
      SCT020 OVC040CB
     FM021000 30008KT P6SM SCT040=



000
FTUS43 KLOT 011400 AAA
TAFDPA
TAF AMD
KDPA 011413Z 0114/0212 20013G23KT P6SM BKN012
      TEMPO 0114/0117 SHRA SCT008 BKN010
     FM011700 23015G22KT P6SM SCT030 BKN050
     FM012300 24012KT P6SM SCT030 BKN050 PROB30 0123/0205 3SM TSRA
      SCT020 OVC040CB
     FM021000 30008KT P6SM SCT040=



000
FTUS43 KLOT 011400 AAA
TAFGYY
TAF AMD
KGYY 011413Z 0114/0212 18012KT 5SM BR OVC012
     FM011500 21013G20KT P6SM BKN012
      TEMPO 0115/0118 SHRA SCT008 BKN010
     FM011800 23015G22KT P6SM SCT030 BKN040
     FM020000 24012KT P6SM VCSH SCT030 BKN040 PROB30 0200/0206 3SM
      TSRA SCT020 OVC040CB
     FM021000 30008KT P6SM SCT040=



000
FTUS43 KLOT 011100 CCA
TAFDPA
TAF COR
KDPA 011138Z 0112/0212 17010KT 6SM BR SCT009 BKN016
     FM011300 12008KT P6SM SCT010 BKN025
     FM011500 20013G20KT P6SM VCTS SCT020 BKN050CB
      TEMPO 0115/0118 VRB10G20KT 3SM SHRA SCT025 OVC035
     FM011800 23015G22KT P6SM SCT030 BKN050
     FM012300 24012KT P6SM SCT030 BKN050 PROB30 0123/0205 3SM TSRA
      SCT020 OVC040CB
     FM021000 30008KT P6SM SCT040=



000
FTUS43 KLOT 011100
TAFDPA
TAF
KDPA 011120Z 0112/0212 19010KT 6SM BR BKN009
     FM011300 12008KT P6SM SCT010 BKN018
     FM011500 20013G20KT P6SM VCTS SCT020 BKN050CB
      TEMPO 0115/0118 VRB10G20KT 3SM SHRA SCT025 OVC035
     FM011800 23015G22KT P6SM SCT030 BKN050
     FM012300 24012KT P6SM SCT030 BKN050 PROB30 0123/0205 3SM TSRA
      SCT020 OVC040CB
     FM021000 30008KT P6SM SCT040=



000
FTUS43 KLOT 011100
TAFGYY
TAF
KGYY 011120Z 0112/0212 14009KT P6SM SCT008 BKN010
     FM011400 20010G18KT P6SM VCSH SCT020 BKN040
     FM011600 21013G20KT P6SM VCTS SCT020 BKN040CB
      TEMPO 0116/0119 VRB10G20KT 3SM SHRA SCT025 OVC035
     FM012000 23015G22KT P6SM VCSH SCT030 BKN040
     FM020000 24012KT P6SM VCSH SCT030 BKN040 PROB30 0200/0206 3SM
      TSRA SCT020 OVC040CB
     FM021000 30008KT P6SM SCT040=



000
FTUS43 KLOT 011100
TAFRFD
TAF
KRFD 011120Z 0112/0212 10008KT P6SM SCT020 BKN050
     FM011400 23012G22KT P6SM VCSH BKN050
     FM020000 27008KT P6SM SCT040
     FM020800 30008KT P6SM SCT040=



000
FTUS43 KLOT 011100
TAFORD
TAF
KORD 011120Z 0112/0218 20010KT P6SM VCSH SCT009 BKN014
     FM011300 12008KT P6SM SCT010 BKN018
     FM011500 17010KT P6SM VCSH SCT020 BKN050
     FM011600 21013G20KT P6SM VCTS SCT020 BKN050CB
      TEMPO 0116/0119 VRB10G20KT 3SM SHRA SCT025 OVC035
     FM011900 23015G22KT P6SM SCT030 BKN050
     FM012300 24012KT P6SM SCT030 BKN050 PROB30 0123/0205 3SM TSRA
      SCT020 OVC040CB
     FM021000 30008KT P6SM SCT040=



000
FTUS43 KLOT 011100
TAFGYY
TAF
KGYY 011120Z 0112/0212 14009KT P6SM SCT008 BKN010
     FM011400 20010G18KT P6SM VCSH SCT020 BKN040
     FM011600 21013G20KT P6SM VCTS SCT020 BKN040CB
      TEMPO 0116/0119 VRB10G20KT 3SM SHRA SCT025 OVC035
     FM012000 23015G22KT P6SM VCSH SCT030 BKN040
     FM020000 24012KT P6SM VCSH SCT030 BKN040 PROB30 0200/0206 3SM
      TSRA SCT020 OVC040CB
     FM021000 30008KT P6SM SCT040=



000
FTUS43 KLOT 011100
TAFMDW
TAF
KMDW 011120Z 0112/0212 20010KT P6SM VCSH SCT009 BKN014
     FM011300 12008KT P6SM SCT010 BKN018
     FM011500 17010KT P6SM VCSH SCT020 BKN050
     FM011600 21013G20KT P6SM VCTS SCT020 BKN050CB
      TEMPO 0116/0119 VRB10G20KT 3SM SHRA SCT025 OVC035
     FM011900 23015G22KT P6SM SCT030 BKN050
     FM012300 24012KT P6SM SCT030 BKN050 PROB30 0123/0205 3SM TSRA
      SCT020 OVC040CB
     FM021000 30008KT P6SM SCT040=



000
FTUS43 KLOT 011000 AAB
TAFMDW
TAF AMD
KMDW 011001Z 0110/0206 19008KT P6SM SCT060 SCT250
     FM011100 22007KT P6SM VCSH SCT009 BKN014
     FM011300 21010G18KT P6SM VCSH SCT020 BKN040
     FM011600 21013G20KT P6SM VCTS SCT020 BKN040CB
      TEMPO 0116/0119 VRB10G20KT 3SM SHRA SCT025 OVC035
     FM011900 23015G22KT P6SM SCT030 BKN040
     FM012300 24012KT P6SM SCT030 BKN040 PROB30 0123/0205 3SM TSRA
      SCT020 OVC040CB=



000
FTUS43 KLOT 010900 CCA
TAFORD
TAF COR
KORD 010958Z 0110/0212 19008KT P6SM SCT060 SCT250
     FM011030 22007KT P6SM VCSH SCT009 BKN014
     FM011300 21010G18KT P6SM VCSH SCT020 BKN040
     FM011600 21013G20KT P6SM VCTS SCT020 BKN040CB
      TEMPO 0116/0119 VRB10G20KT 3SM SHRA SCT025 OVC035
     FM011900 23015G22KT P6SM SCT030 BKN040
     FM012300 24012KT P6SM SCT030 BKN040 PROB30 0123/0205 3SM TSRA
      SCT020 OVC040CB
     FM021000 30008KT P6SM SCT040=



000
FTUS43 KLOT 010900 AAB
TAFORD
TAF AMD
KORD 010956Z 0110/0212 19008KT P6SM SCT060 SCT250
     FM011030 22007KT P6SM VCSH SCT009 BKN014
     FM011300 21012G18KT P6SM VCSH SCT025 BKN050
      TEMPO 0116/0119 VRB10G20KT 3SM SHRA SCT025 OVC035
     FM011900 23015G22KT P6SM SCT030 BKN040
     FM012300 24012KT P6SM SCT030 BKN040 PROB30 0123/0205 3SM TSRA
      SCT020 OVC040CB
     FM021000 30008KT P6SM SCT040=



000
FTUS43 KLOT 010900 AAB
TAFDPA
TAF AMD
KDPA 010947Z 0110/0206 17008KT 6SM MIFG BR BKN009
     FM011100 22007KT 6SM BR VCSH SCT009 BKN020
     FM011300 21012G18KT P6SM VCTS BKN050CB
      TEMPO 0113/0117 VRB10G20KT 3SM SHRA SCT025 OVC035
     FM011700 23015G22KT P6SM SCT030 BKN040
     FM012300 24012KT P6SM SCT030 BKN040 PROB30 0123/0205 3SM TSRA
      SCT020 OVC040CB=



000
FTUS43 KLOT 010900 AAA
TAFDPA
TAF AMD
KDPA 010914Z 0109/0206 17008KT 6SM MIFG BR SCT050 BKN120
     FM011100 22007KT 6SM BR VCSH SCT015 BKN050
     FM011300 21012G18KT P6SM VCTS BKN050CB
      TEMPO 0113/0117 VRB10G20KT 3SM SHRA SCT025 OVC035
     FM011700 23015G22KT P6SM SCT030 BKN040
     FM012300 24012KT P6SM SCT030 BKN040 PROB30 0123/0205 3SM TSRA
      SCT020 OVC040CB=



000
FTUS43 KLOT 010900 AAA
TAFORD
TAF AMD
KORD 010914Z 0109/0212 19008KT P6SM SCT060 SCT250
     FM011100 22007KT P6SM VCSH SCT015 BKN050
     FM011300 21012G18KT P6SM VCTS BKN050CB
      TEMPO 0113/0117 VRB10G20KT 3SM SHRA SCT025 OVC035
     FM011700 23015G22KT P6SM SCT030 BKN040
     FM012300 24012KT P6SM SCT030 BKN040 PROB30 0123/0205 3SM TSRA
      SCT020 OVC040CB
     FM021000 30008KT P6SM SCT040=



000
FTUS43 KLOT 010900 AAA
TAFMDW
TAF AMD
KMDW 010914Z 0109/0206 19008KT P6SM SCT060 SCT250
     FM011100 22007KT P6SM VCSH SCT015 BKN050
     FM011300 21012G18KT P6SM VCTS BKN050CB
      TEMPO 0113/0117 VRB10G20KT 3SM SHRA SCT025 OVC035
     FM011700 23015G22KT P6SM SCT030 BKN040
     FM012300 24012KT P6SM SCT030 BKN040 PROB30 0123/0205 3SM TSRA
      SCT020 OVC040CB=



000
FTUS43 KLOT 010900 AAA
TAFGYY
TAF AMD
KGYY 010914Z 0109/0206 16007KT P6SM SCT120
     FM011400 21012G18KT P6SM VCTS SCT040CB BKN080
      TEMPO 0114/0118 VRB10G20KT 3SM SHRA SCT025 OVC035
     FM011800 23015G22KT P6SM VCSH SCT030 BKN040
     FM020000 24012KT P6SM VCSH SCT030 BKN040 PROB30 0200/0206 3SM
      TSRA SCT020 OVC040CB=



000
FTUS43 KLOT 010900 AAA
TAFRFD
TAF AMD
KRFD 010914Z 0109/0206 23008KT P6SM VCSH SCT015 BKN040
      TEMPO 0109/0111 4SM -SHRA SCT009 OVC015
     FM011100 19008KT P6SM SCT035 OVC100
     FM011600 23014G22KT P6SM SCT040 SCT300
     FM020000 27008KT P6SM SCT040=



000
FTUS43 KLOT 010500 RRA
TAFRFD
TAF
KRFD 010555Z 0106/0206 17010KT P6SM SCT120
     FM010900 18010KT P6SM VCTS SCT040CB BKN080
      TEMPO 0109/0111 23010KT 4SM SHRA SCT020 OVC035
     FM011100 19008KT P6SM SCT035 OVC100
     FM011600 23014G22KT P6SM SCT040 SCT300
     FM020000 27008KT P6SM SCT040=



000
FTUS43 KLOT 010500 RRA
TAFDPA
TAF
KDPA 010550Z 0106/0206 19007KT 6SM BR SCT120 SCT300
     FM010700 16004KT 4SM MIFG BR BKN120
     FM011300 21012G18KT P6SM VCTS SCT040CB BKN080
      TEMPO 0113/0117 VRB10G20KT 3SM SHRA SCT025 OVC035
     FM011700 23015G22KT P6SM SCT030 BKN040
     FM012300 24012KT P6SM SCT030 BKN040 PROB30 0123/0205 3SM TSRA
      SCT020 OVC040CB=



000
FTUS43 KLOT 010500 RRA
TAFMDW
TAF
KMDW 010549Z 0106/0206 19005KT P6SM SCT120 SCT300
     FM011300 21012G18KT P6SM VCTS SCT040CB BKN080
      TEMPO 0113/0117 VRB10G20KT 3SM SHRA SCT025 OVC035
     FM011700 23015G22KT P6SM SCT030 BKN040
     FM012300 24012KT P6SM SCT030 BKN040 PROB30 0123/0205 3SM TSRA
      SCT020 OVC040CB=



000
FTUS43 KLOT 010500 RRA
TAFGYY
TAF
KGYY 010549Z 0106/0206 16005KT P6SM SCT120
     FM011400 21012G18KT P6SM VCTS SCT040CB BKN080
      TEMPO 0114/0118 VRB10G20KT 3SM SHRA SCT025 OVC035
     FM011800 23015G22KT P6SM VCSH SCT030 BKN040
     FM020000 24012KT P6SM VCSH SCT030 BKN040 PROB30 0200/0206 3SM
      TSRA SCT020 OVC040CB=



000
FTUS43 KLOT 010500 RRA
TAFORD
TAF
KORD 010549Z 0106/0212 19005KT P6SM SCT120 SCT300
     FM011300 21012G18KT P6SM VCTS SCT040CB BKN080
      TEMPO 0113/0117 VRB10G20KT 3SM SHRA SCT025 OVC035
     FM011700 23015G22KT P6SM SCT030 BKN040
     FM012300 24012KT P6SM SCT030 BKN040 PROB30 0123/0205 3SM TSRA
      SCT020 OVC040CB
     FM021000 30008KT P6SM SCT040=



000
FTUS43 KLOT 010300 AAA
TAFORD
TAF AMD
KORD 010312Z 0103/0206 19005KT P6SM SCT120 SCT300
     FM011400 22012G20KT P6SM SCT040 BKN080 PROB30 0114/0120
      VRB10G20KT 5SM -TSRA OVC035CB
     FM012000 23014G22KT P6SM SCT030 SCT300
     FM020100 24010KT P6SM SCT300=



000
FTUS43 KLOT 010300 AAA
TAFMDW
TAF AMD
KMDW 010312Z 0103/0124 19005KT P6SM SCT120 SCT300
     FM011400 22012G20KT P6SM SCT040 BKN080 PROB30 0114/0120
      VRB10G20KT 5SM -TSRA OVC035CB
     FM012000 23014G22KT P6SM SCT030 SCT300=



000
FTUS43 KLOT 010300 AAA
TAFRFD
TAF AMD
KRFD 010312Z 0103/0124 17010KT P6SM SCT120
     FM010900 18010KT P6SM VCTS SCT040CB BKN080
      TEMPO 0109/0111 23010KT 5SM -SHRA OVC040
     FM011100 19008KT P6SM OVC100
     FM011600 23014G22KT P6SM SCT040 SCT300=



000
FTUS43 KLOT 010300 AAA
TAFDPA
TAF AMD
KDPA 010312Z 0103/0124 19007KT P6SM SCT120 SCT300
     FM010600 16004KT 4SM MIFG BR BKN120
     FM011400 22012G20KT P6SM SCT040 BKN080 PROB30 0114/0120
      VRB10G20KT 5SM -TSRA OVC035CB
     FM012000 23014G22KT P6SM SCT030 SCT300=



000
FTUS43 KLOT 010300 AAA
TAFGYY
TAF AMD
KGYY 010312Z 0103/0124 16005KT P6SM SCT120
     FM011400 22012G20KT P6SM SCT040 BKN080 PROB30 0114/0120
      VRB10G20KT 5SM -TSRA OVC035CB
     FM012000 23014G22KT P6SM SCT030 SCT300=



000
FTUS43 KLOT 312300
TAFGYY
TAF
KGYY 312320Z 0100/0124 20009KT P6SM SCT035
     FM010200 17005KT P6SM SCT120
     FM011400 22012G20KT P6SM SCT040 BKN080 PROB30 0114/0120
      VRB10G20KT 5SM -TSRA OVC035CB
     FM012000 23014G22KT P6SM SCT030 SCT300=



000
FTUS43 KLOT 312300
TAFORD
TAF
KORD 312320Z 0100/0206 19005KT P6SM SCT120 SCT300
     FM011400 22012G20KT P6SM SCT040 BKN080 PROB30 0114/0120
      VRB10G20KT 5SM -TSRA OVC035CB
     FM012000 23014G22KT P6SM SCT030 SCT300
     FM020100 24010KT P6SM SCT300=



000
FTUS43 KLOT 312300
TAFGYY
TAF
KGYY 312320Z 0100/0124 20009KT P6SM SCT035
     FM010200 17005KT P6SM SCT120
     FM011400 22012G20KT P6SM SCT040 BKN080 PROB30 0114/0120
      VRB10G20KT 5SM -TSRA OVC035CB
     FM012000 23014G22KT P6SM SCT030 SCT300=



000
FTUS43 KLOT 312300
TAFRFD
TAF
KRFD 312320Z 0100/0124 19007KT P6SM SCT120
     FM011100 19010KT P6SM SCT040 BKN080 PROB30 0111/0116 VRB10G20KT
      4SM -TSRA OVC030CB
     FM011600 23014G22KT P6SM SCT040 SCT300=



000
FTUS43 KLOT 312300
TAFDPA
TAF
KDPA 312320Z 0100/0124 19007KT P6SM SCT120 SCT300
     FM010600 16004KT 4SM MIFG BR BKN120
     FM011400 22012G20KT P6SM SCT040 BKN080 PROB30 0114/0120
      VRB10G20KT 5SM -TSRA OVC035CB
     FM012000 23014G22KT P6SM SCT030 SCT300=



000
FTUS43 KLOT 312300
TAFMDW
TAF
KMDW 312320Z 0100/0124 19005KT P6SM SCT120 SCT300
     FM011400 22012G20KT P6SM SCT040 BKN080 PROB30 0114/0120
      VRB10G20KT 5SM -TSRA OVC035CB
     FM012000 23014G22KT P6SM SCT030 SCT300=



000
FTUS43 KLOT 312200 AAB
TAFGYY
TAF AMD
KGYY 312203Z 3122/0118 20009KT P6SM SCT040
     FM010200 16005KT P6SM SCT080
     FM011300 19012KT P6SM VCSH SCT040 BKN080
     FM011600 20014G22KT P6SM SCT040=



000
FTUS43 KLOT 312200 AAB
TAFGYY
TAF AMD
KGYY 312203Z 3122/0118 20009KT P6SM SCT040
     FM010200 16005KT P6SM SCT080
     FM011300 19012KT P6SM VCSH SCT040 BKN080
     FM011600 20014G22KT P6SM SCT040=



000
FTUS43 KLOT 312200 AAB
TAFRFD
TAF AMD
KRFD 312203Z 3122/0118 20008KT P6SM SCT040
     FM010200 17006KT P6SM BKN120
     FM011200 19012KT P6SM SCT040 BKN080 PROB30 0112/0115 4SM -TSRA
      BKN030CB
     FM011600 23014G22KT P6SM SCT040=



000
FTUS43 KLOT 312200 AAB
TAFDPA
TAF AMD
KDPA 312203Z 3122/0118 20008KT P6SM SCT040
     FM010200 17004KT P6SM SCT080
     FM011300 19012KT P6SM VCSH SCT040 BKN080
     FM011600 20014G22KT P6SM SCT040=



000
FTUS43 KLOT 312200 AAB
TAFMDW
TAF AMD
KMDW 312203Z 3122/0118 21008KT P6SM SCT040
     FM010200 17004KT P6SM SCT080
     FM011300 19012KT P6SM VCSH SCT040 BKN080
     FM011600 20014G22KT P6SM SCT040=



000
FTUS43 KLOT 312200 AAB
TAFORD
TAF AMD
KORD 312203Z 3122/0124 21008KT P6SM SCT040
     FM010200 17004KT P6SM SCT080
     FM011300 19012KT P6SM VCSH SCT040 BKN080
     FM011600 20014G22KT P6SM SCT040
     FM012000 23014G22KT P6SM VCTS SCT030 BKN040CB
      TEMPO 0121/0123 3SM TSRA BKN030CB=



000
FTUS43 KLOT 311900 AAA
TAFORD
TAF AMD
KORD 311955Z 3120/0124 20009KT P6SM SCT040
     FM010200 17004KT P6SM SCT080
     FM011300 19012KT P6SM VCSH SCT040 BKN080
     FM011600 20014G22KT P6SM SCT040
     FM012000 23014G22KT P6SM VCTS SCT030 BKN040CB
      TEMPO 0121/0123 3SM TSRA BKN030CB=



000
FTUS43 KLOT 311900 AAA
TAFDPA
TAF AMD
KDPA 311955Z 3120/0118 20009KT P6SM SCT040
     FM010200 17004KT P6SM SCT080
     FM011300 19012KT P6SM VCSH SCT040 BKN080
     FM011600 20014G22KT P6SM SCT040=



000
FTUS43 KLOT 311900 AAA
TAFGYY
TAF AMD
KGYY 311955Z 3120/0118 20009KT P6SM SCT040
     FM010200 16005KT P6SM SCT080
     FM011300 19012KT P6SM VCSH SCT040 BKN080
     FM011600 20014G22KT P6SM SCT040=



000
FTUS43 KLOT 311900 AAA
TAFMDW
TAF AMD
KMDW 311955Z 3120/0118 20009KT P6SM SCT040
     FM010200 17004KT P6SM SCT080
     FM011300 19012KT P6SM VCSH SCT040 BKN080
     FM011600 20014G22KT P6SM SCT040=



000
FTUS43 KLOT 311900 AAA
TAFRFD
TAF AMD
KRFD 311955Z 3120/0118 20008KT P6SM SCT040
     FM010200 17006KT P6SM BKN120
     FM011200 19012KT P6SM SCT040 BKN080 PROB30 0112/0115 4SM -TSRA
      BKN030CB
     FM011600 23014G22KT P6SM SCT040=



000
FTUS43 KLOT 311900 AAA
TAFGYY
TAF AMD
KGYY 311955Z 3120/0118 20009KT P6SM SCT040
     FM010200 16005KT P6SM SCT080
     FM011300 19012KT P6SM VCSH SCT040 BKN080
     FM011600 20014G22KT P6SM SCT040=



000
FTUS43 KLOT 311700
TAFMDW
TAF
KMDW 311724Z 3118/0118 20007KT P6SM SCT025 BKN040
     FM010200 17004KT P6SM SCT080
     FM011300 19012KT P6SM SCT040 BKN080
     FM011600 20014G22KT P6SM SCT040=



000
FTUS43 KLOT 311700
TAFRFD
TAF
KRFD 311724Z 3118/0118 20008KT P6SM SCT030
     FM010200 17006KT P6SM BKN120
     FM011200 19012KT P6SM SCT040 BKN080 PROB30 0112/0115 4SM -TSRA
      BKN030CB
     FM011600 23014G22KT P6SM SCT040=



000
FTUS43 KLOT 311700
TAFDPA
TAF
KDPA 311724Z 3118/0118 20007KT P6SM SCT025 BKN040
     FM010200 17004KT P6SM SCT080
     FM011300 19012KT P6SM SCT040 BKN080
     FM011600 20014G22KT P6SM SCT040=



000
FTUS43 KLOT 311700
TAFORD
TAF
KORD 311724Z 3118/0124 20007KT P6SM SCT025 BKN040
     FM010200 17004KT P6SM SCT080
     FM011300 19012KT P6SM SCT040 BKN080
     FM011600 20014G22KT P6SM SCT040
     FM012000 23014G22KT P6SM VCTS SCT030 BKN040CB
      TEMPO 0121/0123 3SM TSRA BKN030CB=



000
FTUS43 KLOT 311700
TAFGYY
TAF
KGYY 311724Z 3118/0118 20006KT P6SM SCT012 BKN018
     FM312100 11006KT P6SM SCT040
     FM010200 16005KT P6SM SCT080
     FM011300 19012KT P6SM SCT040 BKN080
     FM011600 20014G22KT P6SM SCT040=



000
FTUS43 KLOT 311700
TAFGYY
TAF
KGYY 311724Z 3118/0118 20006KT P6SM SCT012 BKN018
     FM312100 11006KT P6SM SCT040
     FM010200 16005KT P6SM SCT080
     FM011300 19012KT P6SM SCT040 BKN080
     FM011600 20014G22KT P6SM SCT040=



000
FTUS43 KLOT 311600 AAB
TAFMDW
TAF AMD
KMDW 311602Z 3116/0112 20005KT P6SM BKN030
     FM311700 20006KT P6SM BKN040
     FM010200 18006KT P6SM SCT080=



000
FTUS43 KLOT 311600 AAC
TAFRFD
TAF AMD
KRFD 311602Z 3116/0112 21007KT P6SM SCT250
     FM311800 20008KT P6SM SCT030
     FM010200 17005KT P6SM SKC=



000
FTUS43 KLOT 311600 AAE
TAFGYY
TAF AMD
KGYY 311602Z 3116/0112 20004KT P6SM BKN010
      TEMPO 3116/3117 SCT010
     FM311700 22006KT P6SM SCT250
     FM312000 03006KT P6SM FEW030
     FM010200 19005KT P6SM SCT080=



000
FTUS43 KLOT 311600 AAD
TAFORD
TAF AMD
KORD 311602Z 3116/0118 20004KT P6SM BKN030
     FM311700 20006KT P6SM BKN040
     FM010200 18006KT P6SM SCT080
     FM011500 21012KT P6SM SCT035 BKN060 PROB30 0115/0118 4SM -TSRA
      BKN035CB=



000
FTUS43 KLOT 311600 AAE
TAFGYY
TAF AMD
KGYY 311602Z 3116/0112 20004KT P6SM BKN010
      TEMPO 3116/3117 SCT010
     FM311700 22006KT P6SM SCT250
     FM312000 03006KT P6SM FEW030
     FM010200 19005KT P6SM SCT080=



000
FTUS43 KLOT 311600 AAD
TAFDPA
TAF AMD
KDPA 311602Z 3116/0112 19006KT P6SM BKN030
     FM311700 20006KT P6SM BKN040
     FM010200 17005KT P6SM SCT080=



000
FTUS43 KLOT 311500 AAD
TAFGYY
TAF AMD
KGYY 311501Z 3115/0112 00000KT P6SM BKN008
      TEMPO 3115/3117 SCT008
     FM311700 22006KT P6SM SCT250
     FM312000 03006KT P6SM FEW030
     FM010200 19005KT P6SM SCT080=



000
FTUS43 KLOT 311500 AAD
TAFGYY
TAF AMD
KGYY 311501Z 3115/0112 00000KT P6SM BKN008
      TEMPO 3115/3117 SCT008
     FM311700 22006KT P6SM SCT250
     FM312000 03006KT P6SM FEW030
     FM010200 19005KT P6SM SCT080=



000
FTUS43 KLOT 311300 AAC
TAFDPA
TAF AMD
KDPA 311359Z 3114/0112 00000KT 3SM BR SCT003 BKN030
      TEMPO 3114/3115 1/4SM FG VV002
     FM311500 20006KT P6SM SCT030
     FM010200 17005KT P6SM SCT080=



000
FTUS43 KLOT 311300 AAA
TAFMDW
TAF AMD
KMDW 311359Z 3114/0112 20003KT P6SM FEW030
     FM311600 20005KT P6SM SCT030
     FM010200 18006KT P6SM SCT080=



000
FTUS43 KLOT 311300 AAB
TAFRFD
TAF AMD
KRFD 311359Z 3114/0112 VRB03KT P6SM FEW250
     FM311500 23005KT P6SM SCT250
     FM311800 20008KT P6SM SCT030
     FM010200 17005KT P6SM SKC=



000
FTUS43 KLOT 311300 AAC
TAFORD
TAF AMD
KORD 311359Z 3114/0118 22004KT P6SM FEW030
     FM311700 20005KT P6SM SCT030
     FM010200 18006KT P6SM SCT080
     FM011500 21012KT P6SM SCT035 BKN060 PROB30 0115/0118 4SM -TSRA
      BKN035CB=



000
FTUS43 KLOT 311300 AAC
TAFGYY
TAF AMD
KGYY 311359Z 3114/0112 00000KT P6SM BKN004 OVC011
     FM311500 22006KT P6SM SCT250
     FM312000 03006KT P6SM FEW030
     FM010200 19005KT P6SM SCT080=



000
FTUS43 KLOT 311300 AAC
TAFGYY
TAF AMD
KGYY 311359Z 3114/0112 00000KT P6SM BKN004 OVC011
     FM311500 22006KT P6SM SCT250
     FM312000 03006KT P6SM FEW030
     FM010200 19005KT P6SM SCT080=



000
FTUS43 KLOT 311300 AAA
TAFRFD
TAF AMD
KRFD 311329Z 3113/0112 VRB03KT P6SM SCT250
     FM311500 23005KT P6SM SCT250
     FM311800 20008KT P6SM SCT030
     FM010200 17005KT P6SM SKC=



000
FTUS43 KLOT 311300 AAB
TAFDPA
TAF AMD
KDPA 311328Z 3113/0112 00000KT 3SM BR SCT003 BKN030
      TEMPO 3113/3115 1/4SM FG VV002
     FM311500 20006KT P6SM SCT030
     FM010200 17005KT P6SM SCT080=



000
FTUS43 KLOT 311300 AAB
TAFGYY
TAF AMD
KGYY 311327Z 3113/0112 00000KT P6SM BKN004 OVC011
     FM311500 22006KT P6SM SCT250
     FM312000 03006KT P6SM FEW030
     FM010200 19005KT P6SM SCT080=



000
FTUS43 KLOT 311300 AAB
TAFGYY
TAF AMD
KGYY 311327Z 3113/0112 00000KT P6SM BKN004 OVC011
     FM311500 22006KT P6SM SCT250
     FM312000 03006KT P6SM FEW030
     FM010200 19005KT P6SM SCT080=



000
FTUS43 KLOT 311300 AAB
TAFORD
TAF AMD
KORD 311326Z 3113/0118 22004KT P6SM FEW005 SCT030
      TEMPO 3113/3114 3SM BR BKN005
     FM311700 20005KT P6SM SCT030
     FM010200 18006KT P6SM SCT080
     FM011500 21012KT P6SM SCT035 BKN060 PROB30 0115/0118 4SM -TSRA
      BKN035CB=



000
FTUS43 KLOT 311200 AAA
TAFGYY
TAF AMD
KGYY 311240Z 3113/0112 00000KT P6SM BKN011
     FM311400 22006KT P6SM SCT250
     FM312000 03006KT P6SM FEW030
     FM010200 19005KT P6SM SCT080=



000
FTUS43 KLOT 311200 AAA
TAFGYY
TAF AMD
KGYY 311240Z 3113/0112 00000KT P6SM BKN011
     FM311400 22006KT P6SM SCT250
     FM312000 03006KT P6SM FEW030
     FM010200 19005KT P6SM SCT080=



000
FTUS43 KLOT 311200 AAA
TAFORD
TAF AMD
KORD 311225Z 3112/0118 18003KT 1 1/2SM BR OVC002
     FM311230 20004KT 3SM BR OVC003
     FM311300 20004KT P6SM FEW004 SCT030
     FM311700 20005KT P6SM SCT030
     FM010200 18006KT P6SM SCT080
     FM011500 21012KT P6SM SCT035 BKN060 PROB30 0115/0118 4SM -TSRA
      BKN035CB=



000
FTUS43 KLOT 311100 AAA
TAFDPA
TAF AMD
KDPA 311149Z 3112/0112 00000KT 3SM BR SCT003 BKN030
      TEMPO 3112/3114 1/4SM FG VV002
     FM311400 20006KT P6SM SCT030
     FM010200 17005KT P6SM SCT080=



000
FTUS43 KLOT 311100
TAFGYY
TAF
KGYY 311135Z 3112/0112 00000KT P6SM BKN009
     FM311400 22006KT P6SM SCT250
     FM312000 03006KT P6SM FEW030
     FM010200 19005KT P6SM SCT080=



000
FTUS43 KLOT 311100
TAFRFD
TAF
KRFD 311135Z 3112/0112 00000KT 6SM MIFG BR SCT250
      TEMPO 3112/3114 2SM BR VV005
     FM311400 23005KT P6SM SCT250
     FM311800 20008KT P6SM SCT030
     FM010200 17005KT P6SM SKC=



000
FTUS43 KLOT 311100
TAFGYY
TAF
KGYY 311135Z 3112/0112 00000KT P6SM BKN009
     FM311400 22006KT P6SM SCT250
     FM312000 03006KT P6SM FEW030
     FM010200 19005KT P6SM SCT080=



000
FTUS43 KLOT 311100
TAFDPA
TAF
KDPA 311135Z 3112/0112 00000KT 3SM BR SCT003 BKN030
      TEMPO 3112/3114 1SM BR BKN003
     FM311400 20006KT P6SM SCT030
     FM010200 17005KT P6SM SCT080=



000
FTUS43 KLOT 311100
TAFORD
TAF
KORD 311135Z 3112/0118 VRB03KT 1 1/2SM BR OVC004
     FM311230 20004KT 6SM HZ SCT010 SCT030
     FM311700 20005KT P6SM SCT030
     FM010200 18006KT P6SM SCT080
     FM011500 21012KT P6SM SCT035 BKN060 PROB30 0115/0118 4SM -TSRA
      BKN035CB=



000
FTUS43 KLOT 311100
TAFMDW
TAF
KMDW 311135Z 3112/0112 20003KT P6SM SCT010 BKN250
     FM311600 20005KT P6SM SCT030
     FM010200 18006KT P6SM SCT080=



000
FTUS43 KLOT 311000 AAB
TAFMDW
TAF AMD
KMDW 311019Z 3110/0106 20004KT P6SM SCT009 BKN250
      TEMPO 3110/3114 BKN009
     FM311600 20005KT P6SM SCT030
     FM010200 18006KT P6SM SKC=



000
FTUS43 KLOT 311000 AAB
TAFDPA
TAF AMD
KDPA 311018Z 3110/0106 VRB03KT 4SM BR SCT003 BKN030
      TEMPO 3110/3113 2SM BR BKN003
     FM311400 20006KT P6SM SCT030
     FM010200 17005KT P6SM SKC=



000
FTUS43 KLOT 311000 AAB
TAFRFD
TAF AMD
KRFD 311016Z 3110/0106 00000KT 6SM MIFG BR SCT250
     FM311400 23005KT P6SM SCT250
     FM311800 20008KT P6SM SCT030
     FM010200 16005KT P6SM SKC=



000
FTUS43 KLOT 311000 AAB
TAFGYY
TAF AMD
KGYY 311015Z 3110/0106 00000KT P6SM BKN009
     FM311400 22006KT P6SM SCT250
     FM312000 03006KT P6SM FEW030
     FM010200 19005KT P6SM SKC=



000
FTUS43 KLOT 311000 AAB
TAFGYY
TAF AMD
KGYY 311015Z 3110/0106 00000KT P6SM BKN009
     FM311400 22006KT P6SM SCT250
     FM312000 03006KT P6SM FEW030
     FM010200 19005KT P6SM SKC=



000
FTUS43 KLOT 310900 AAA
TAFGYY
TAF AMD
KGYY 310901Z 3109/0106 00000KT P6SM OVC300
     FM311000 00000KT 2SM BCFG BR SCT003 SCT300
     FM311400 22006KT P6SM SCT300
     FM312000 03006KT P6SM FEW030
     FM010200 19005KT P6SM SKC=



000
FTUS43 KLOT 310900 AAA
TAFGYY
TAF AMD
KGYY 310901Z 3109/0106 00000KT P6SM OVC300
     FM311000 00000KT 2SM BCFG BR SCT003 SCT300
     FM311400 22006KT P6SM SCT300
     FM312000 03006KT P6SM FEW030
     FM010200 19005KT P6SM SKC=



000
FTUS43 KLOT 310900 AAA
TAFMDW
TAF AMD
KMDW 310901Z 3109/0106 21005KT P6SM SCT035 BKN250
     FM311600 20005KT P6SM SCT030
     FM010200 18006KT P6SM SKC=



000
FTUS43 KLOT 310900 AAA
TAFRFD
TAF AMD
KRFD 310901Z 3109/0106 00000KT 6SM MIFG BR SCT300
     FM311000 00000KT 2SM MIFG BR SCT003
     FM311400 23005KT P6SM SCT300
     FM311800 20008KT P6SM SCT030
     FM010200 16005KT P6SM SKC=



000
FTUS43 KLOT 310900 AAA
TAFDPA
TAF AMD
KDPA 310901Z 3109/0106 00000KT 6SM MIFG BR BKN035
     FM311000 00000KT 2SM MIFG BR SCT003
     FM311400 20006KT P6SM SCT030
     FM010200 17005KT P6SM SKC=



000
FTUS43 KLOT 310900 AAA
TAFORD
TAF AMD
KORD 310901Z 3109/0112 VRB03KT P6SM SCT035 BKN250
     FM311700 20005KT P6SM SCT030
     FM010200 18006KT P6SM SKC=



000
FTUS43 KLOT 310500 RRA
TAFGYY
TAF
KGYY 310548Z 3106/0106 VRB03KT P6SM BKN250
     FM310700 00000KT 4SM BCFG BR OVC300
     FM311000 00000KT 2SM BCFG BR SCT003 SCT300
     FM311400 22006KT P6SM SCT300
     FM312000 03006KT P6SM FEW030
     FM010200 19005KT P6SM SKC=



000
FTUS43 KLOT 310500 RRA
TAFORD
TAF
KORD 310548Z 3106/0112 VRB03KT P6SM BKN250
     FM311700 20005KT P6SM SCT030
     FM010200 18006KT P6SM SKC=



000
FTUS43 KLOT 310500 RRA
TAFMDW
TAF
KMDW 310548Z 3106/0106 24005KT P6SM BKN250
     FM311600 20005KT P6SM SCT030
     FM010200 18006KT P6SM SKC=



000
FTUS43 KLOT 310500 RRA
TAFRFD
TAF
KRFD 310548Z 3106/0106 VRB03KT P6SM FEW250
     FM310700 00000KT 4SM BCFG BR SCT300
     FM311400 23005KT P6SM SCT300
     FM311800 20008KT P6SM SCT030
     FM010200 16005KT P6SM SKC=



000
FTUS43 KLOT 310500 RRA
TAFDPA
TAF
KDPA 310548Z 3106/0106 VRB03KT P6SM BKN250
     FM310700 00000KT 4SM MIFG BR SCT300
     FM311000 00000KT 1 1/2SM MIFG BR SCT003
     FM311400 20006KT P6SM SCT030
     FM010200 17005KT P6SM SKC=



000
FTUS43 KLOT 310500 RRA
TAFGYY
TAF
KGYY 310548Z 3106/0106 VRB03KT P6SM BKN250
     FM310700 00000KT 4SM BCFG BR OVC300
     FM311000 00000KT 2SM BCFG BR SCT003 SCT300
     FM311400 22006KT P6SM SCT300
     FM312000 03006KT P6SM FEW030
     FM010200 19005KT P6SM SKC=



000
FTUS43 KLOT 310300 AAA
TAFGYY
TAF AMD
KGYY 310312Z 3103/3124 VRB03KT P6SM SCT050 OVC300
     FM310700 00000KT 4SM BCFG BR OVC300
     FM311000 00000KT 2SM BCFG BR SCT003 SCT300
     FM311400 22006KT P6SM SCT300=



000
FTUS43 KLOT 310300 AAA
TAFGYY
TAF AMD
KGYY 310312Z 3103/3124 VRB03KT P6SM SCT050 OVC300
     FM310700 00000KT 4SM BCFG BR OVC300
     FM311000 00000KT 2SM BCFG BR SCT003 SCT300
     FM311400 22006KT P6SM SCT300=



000
FTUS43 KLOT 310300 AAA
TAFDPA
TAF AMD
KDPA 310312Z 3103/3124 VRB03KT P6SM SCT300
     FM310700 00000KT 4SM MIFG BR SCT300
     FM311000 00000KT 1 1/2SM MIFG BR SCT003
     FM311400 20006KT P6SM SCT030=



000
FTUS43 KLOT 310300 AAA
TAFMDW
TAF AMD
KMDW 310312Z 3103/3124 VRB03KT P6SM BKN300
     FM311600 20006KT P6SM SCT030=



000
FTUS43 KLOT 310300 AAA
TAFRFD
TAF AMD
KRFD 310312Z 3103/3124 00000KT P6SM SCT300
     FM310700 00000KT 4SM BCFG BR SCT300
     FM311400 23005KT P6SM SCT300
     FM311800 20008KT P6SM SCT030=



000
FTUS43 KLOT 310300 AAA
TAFORD
TAF AMD
KORD 310312Z 3103/0106 VRB03KT P6SM SCT300
     FM311700 20007KT P6SM SCT030=



000
FTUS43 KLOT 302300
TAFDPA
TAF
KDPA 302322Z 3100/3124 26008KT P6SM FEW040 SCT300
     FM310200 VRB03KT P6SM SCT300
     FM310500 00000KT 4SM MIFG BR SCT300
     FM310800 00000KT 1 1/2SM MIFG BR SCT003
     FM311400 20006KT P6SM SCT030=



000
FTUS43 KLOT 302300
TAFMDW
TAF
KMDW 302322Z 3100/3124 25011G16KT P6SM FEW040 SCT300
     FM310100 23007KT P6SM SCT300
     FM310500 VRB03KT 6SM BCFG SCT300
     FM311600 20006KT P6SM SCT030=



000
FTUS43 KLOT 302300
TAFORD
TAF
KORD 302322Z 3100/0106 25011G16KT P6SM FEW040 SCT300
     FM310100 23007KT P6SM SCT300
     FM310500 VRB03KT 6SM BCFG SCT300
     FM311600 20006KT P6SM SCT030=



000
FTUS43 KLOT 302300
TAFRFD
TAF
KRFD 302322Z 3100/3124 25008KT P6SM FEW040 FEW300
     FM310100 VRB03KT P6SM SCT300
     FM310500 00000KT 4SM BCFG BR SCT300
     FM311400 23005KT P6SM SCT300
     FM311800 20008KT P6SM SCT030=



000
FTUS43 KLOT 302300
TAFGYY
TAF
KGYY 302322Z 3100/3124 19008KT P6SM VCTS BKN035CB
     FM310200 21007KT P6SM SCT040 BKN300
     FM310600 00000KT 4SM BCFG BR BKN300
     FM310900 00000KT 2SM BCFG BR SCT003 SCT300
     FM311400 22006KT P6SM SCT300=



000
FTUS43 KLOT 302300
TAFGYY
TAF
KGYY 302322Z 3100/3124 19008KT P6SM VCTS BKN035CB
     FM310200 21007KT P6SM SCT040 BKN300
     FM310600 00000KT 4SM BCFG BR BKN300
     FM310900 00000KT 2SM BCFG BR SCT003 SCT300
     FM311400 22006KT P6SM SCT300=



000
FTUS43 KLOT 302200 AAB
TAFGYY
TAF AMD
KGYY 302211Z 3022/3118 21010G20KT P6SM -SHRA VCTS BKN035CB
     FM310100 22007KT P6SM BKN250
     FM310500 VRB03KT 4SM BR SCT007
     FM310800 VRB03KT 2SM BR BKN015
      TEMPO 3108/3112 BKN007
     FM311500 23005KT P6SM SCT025=



000
FTUS43 KLOT 302200 AAB
TAFORD
TAF AMD
KORD 302211Z 3022/3124 24015G25KT P6SM FEW040 SCT300
     FM310100 23007KT P6SM BKN250
     FM310500 VRB03KT 4SM BR SCT250
     FM310800 VRB03KT 2SM BR SCT007
      TEMPO 3108/3112 OVC007
     FM311500 23005KT P6SM SCT025
     FM312100 19007KT P6SM SCT200=



000
FTUS43 KLOT 302200 AAB
TAFMDW
TAF AMD
KMDW 302211Z 3022/3118 24015G25KT P6SM SCT040 BKN300
     FM310100 23008KT P6SM BKN250
     FM310500 VRB03KT 4SM BR SCT007
     FM310800 VRB03KT 2SM BR BKN015
      TEMPO 3108/3112 OVC007
     FM311500 23005KT P6SM SCT025=



000
FTUS43 KLOT 302200 AAB
TAFRFD
TAF AMD
KRFD 302211Z 3022/3118 25012G20KT P6SM FEW040
     FM310030 26004KT P6SM SCT250
     FM310500 VRB03KT 4SM BR SCT250
     FM310700 VRB03KT 2SM BR SCT007
      TEMPO 3108/3112 BKN007
     FM311500 23005KT P6SM SCT025=



000
FTUS43 KLOT 302200 AAB
TAFGYY
TAF AMD
KGYY 302211Z 3022/3118 21010G20KT P6SM -SHRA VCTS BKN035CB
     FM310100 22007KT P6SM BKN250
     FM310500 VRB03KT 4SM BR SCT007
     FM310800 VRB03KT 2SM BR BKN015
      TEMPO 3108/3112 BKN007
     FM311500 23005KT P6SM SCT025=



000
FTUS43 KLOT 302200 AAB
TAFDPA
TAF AMD
KDPA 302211Z 3022/3118 24012G20KT P6SM FEW040 SCT300
     FM310030 23008KT P6SM SCT250
     FM310500 VRB03KT 4SM BR SCT007
     FM310700 VRB03KT 2SM BR BKN015
      TEMPO 3108/3112 BKN007
     FM311500 23005KT P6SM SCT025=



000
FTUS43 KLOT 301900 AAA
TAFGYY
TAF AMD
KGYY 301956Z 3020/3118 22013G23KT P6SM VCTS BKN035CB
      TEMPO 3020/3022 4SM -TSRA BR BKN025CB
     FM310100 22007KT P6SM BKN250
     FM310500 VRB03KT 4SM BR SCT007
     FM310800 VRB03KT 2SM BR BKN015
      TEMPO 3108/3112 BKN007
     FM311500 23005KT P6SM SCT025=



000
FTUS43 KLOT 301900 AAA
TAFRFD
TAF AMD
KRFD 301956Z 3020/3118 23012G20KT P6SM SCT030 BKN060
     FM310100 26004KT P6SM SCT250
     FM310500 VRB03KT 4SM BR SCT250
     FM310700 VRB03KT 2SM BR SCT007
      TEMPO 3108/3112 BKN007
     FM311500 23005KT P6SM SCT025=



000
FTUS43 KLOT 301900 AAA
TAFORD
TAF AMD
KORD 301956Z 3020/3124 22015G25KT P6SM BKN035
     FM310100 23006KT P6SM BKN250
     FM310500 VRB03KT 4SM BR SCT250
     FM310800 VRB03KT 2SM BR SCT007
      TEMPO 3108/3112 OVC007
     FM311500 23005KT P6SM SCT025
     FM312100 19007KT P6SM SCT200=



000
FTUS43 KLOT 301900 AAA
TAFDPA
TAF AMD
KDPA 301956Z 3020/3118 24014G24KT P6SM BKN035
     FM310000 23008KT P6SM SCT250
     FM310500 VRB03KT 4SM BR SCT007
     FM310700 VRB03KT 2SM BR BKN015
      TEMPO 3108/3112 BKN007
     FM311500 23005KT P6SM SCT025=



000
FTUS43 KLOT 301900 AAA
TAFGYY
TAF AMD
KGYY 301956Z 3020/3118 22013G23KT P6SM VCTS BKN035CB
      TEMPO 3020/3022 4SM -TSRA BR BKN025CB
     FM310100 22007KT P6SM BKN250
     FM310500 VRB03KT 4SM BR SCT007
     FM310800 VRB03KT 2SM BR BKN015
      TEMPO 3108/3112 BKN007
     FM311500 23005KT P6SM SCT025=



000
FTUS43 KLOT 301900 AAA
TAFMDW
TAF AMD
KMDW 301956Z 3020/3118 22014G25KT P6SM VCTS BKN035CB
     FM310100 23008KT P6SM BKN250
     FM310500 VRB03KT 4SM BR SCT007
     FM310800 VRB03KT 2SM BR BKN015
      TEMPO 3108/3112 OVC007
     FM311500 23005KT P6SM SCT025=



000
FTUS43 KLOT 301700
TAFORD
TAF
KORD 301724Z 3018/3124 22016G23KT P6SM SCT022 BKN027 OVC035
     FM310100 23006KT P6SM BKN250
     FM310500 VRB03KT 4SM BR SCT250
     FM310800 VRB03KT 2SM BR SCT007
      TEMPO 3108/3112 OVC007
     FM311500 23005KT P6SM SCT025
     FM312100 19007KT P6SM SCT200=



000
FTUS43 KLOT 301700
TAFRFD
TAF
KRFD 301724Z 3018/3118 24013G20KT P6SM SCT018 BKN024 OVC035
     FM310100 26004KT P6SM SCT250
     FM310500 VRB03KT 4SM BR SCT250
     FM310700 VRB03KT 2SM BR SCT007
      TEMPO 3108/3112 BKN007
     FM311500 23005KT P6SM SCT025=



000
FTUS43 KLOT 301700
TAFGYY
TAF
KGYY 301724Z 3018/3118 21015G25KT P6SM OVC024
      TEMPO 3018/3022 4SM -TSRA BR BKN020CB
     FM310100 22007KT P6SM BKN250
     FM310500 VRB03KT 4SM BR SCT007
     FM310800 VRB03KT 2SM BR BKN015
      TEMPO 3108/3112 BKN007
     FM311500 23005KT P6SM SCT025=



000
FTUS43 KLOT 301700
TAFGYY
TAF
KGYY 301724Z 3018/3118 21015G25KT P6SM OVC024
      TEMPO 3018/3022 4SM -TSRA BR BKN020CB
     FM310100 22007KT P6SM BKN250
     FM310500 VRB03KT 4SM BR SCT007
     FM310800 VRB03KT 2SM BR BKN015
      TEMPO 3108/3112 BKN007
     FM311500 23005KT P6SM SCT025=



000
FTUS43 KLOT 301700
TAFMDW
TAF
KMDW 301724Z 3018/3118 21017G23KT P6SM BKN027 OVC035
     FM310100 23008KT P6SM BKN250
     FM310500 VRB03KT 4SM BR SCT007
     FM310800 VRB03KT 2SM BR BKN015
      TEMPO 3108/3112 OVC007
     FM311500 23005KT P6SM SCT025=



000
FTUS43 KLOT 301700
TAFDPA
TAF
KDPA 301724Z 3018/3118 23016G26KT P6SM BKN024 OVC035
     FM310000 23008KT P6SM SCT250
     FM310500 VRB03KT 4SM BR SCT007
     FM310700 VRB03KT 2SM BR BKN015
      TEMPO 3108/3112 BKN007
     FM311500 23005KT P6SM SCT025=



000
FTUS43 KLOT 301500 AAB
TAFGYY
TAF AMD
KGYY 301558Z 3016/3112 21012G22KT P6SM BKN020 OVC030
      TEMPO 3018/3022 4SM -TSRA BR BKN015CB
     FM310100 22007KT P6SM BKN250
     FM310500 VRB03KT 4SM BR SCT007
     FM310800 VRB03KT 2SM BR BKN015
      TEMPO 3108/3112 BKN007=



000
FTUS43 KLOT 301500 AAB
TAFMDW
TAF AMD
KMDW 301558Z 3016/3112 20015G22KT P6SM BKN020 OVC030
     FM310100 23008KT P6SM BKN250
     FM310500 VRB03KT 4SM BR SCT007
     FM310800 VRB03KT 2SM BR BKN015
      TEMPO 3108/3112 OVC007=



000
FTUS43 KLOT 301500 AAB
TAFGYY
TAF AMD
KGYY 301558Z 3016/3112 21012G22KT P6SM BKN020 OVC030
      TEMPO 3018/3022 4SM -TSRA BR BKN015CB
     FM310100 22007KT P6SM BKN250
     FM310500 VRB03KT 4SM BR SCT007
     FM310800 VRB03KT 2SM BR BKN015
      TEMPO 3108/3112 BKN007=



000
FTUS43 KLOT 301500 AAB
TAFRFD
TAF AMD
KRFD 301558Z 3016/3112 23013G23KT P6SM FEW013 BKN020 OVC040
     FM310100 26004KT P6SM SCT250
     FM310500 VRB03KT 4SM BR SCT250
     FM310700 VRB03KT 2SM BR SCT007
      TEMPO 3108/3112 BKN007=



000
FTUS43 KLOT 301500 AAB
TAFORD
TAF AMD
KORD 301558Z 3016/3118 21012G22KT P6SM BKN022 OVC030
     FM310100 23006KT P6SM BKN250
     FM310500 VRB03KT 4SM BR SCT250
     FM310800 VRB03KT 2SM BR SCT007
      TEMPO 3108/3112 OVC007
     FM311500 23005KT P6SM SCT025=



000
FTUS43 KLOT 301500 AAB
TAFDPA
TAF AMD
KDPA 301558Z 3016/3112 22013G23KT P6SM BKN020 OVC030
     FM310000 23008KT P6SM SCT250
     FM310500 VRB03KT 4SM BR SCT007
     FM310700 VRB03KT 2SM BR BKN015
      TEMPO 3108/3112 BKN007=



000
FTUS43 KLOT 301400 AAA
TAFGYY
TAF AMD
KGYY 301417Z 3014/3112 21004KT P6SM BKN014 BKN200
     FM301600 22012G18KT P6SM BKN025
      TEMPO 3018/3022 4SM -TSRA BR BKN015CB
     FM310100 22007KT P6SM BKN250
     FM310500 VRB03KT 4SM BR SCT007
     FM310800 VRB03KT 2SM BR BKN015
      TEMPO 3108/3112 BKN007=



000
FTUS43 KLOT 301400 AAA
TAFGYY
TAF AMD
KGYY 301417Z 3014/3112 21004KT P6SM BKN014 BKN200
     FM301600 22012G18KT P6SM BKN025
      TEMPO 3018/3022 4SM -TSRA BR BKN015CB
     FM310100 22007KT P6SM BKN250
     FM310500 VRB03KT 4SM BR SCT007
     FM310800 VRB03KT 2SM BR BKN015
      TEMPO 3108/3112 BKN007=



000
FTUS43 KLOT 301400 AAA
TAFORD
TAF AMD
KORD 301417Z 3014/3118 22012G18KT P6SM BKN025
     FM310100 23006KT P6SM BKN250
     FM310500 VRB03KT 4SM BR SCT250
     FM310800 VRB03KT 2SM BR SCT007
      TEMPO 3108/3112 OVC007
     FM311500 23005KT P6SM SCT025=



000
FTUS43 KLOT 301400 AAA
TAFDPA
TAF AMD
KDPA 301417Z 3014/3112 21012KT P6SM BKN013 OVC017
     FM301600 22012G18KT P6SM BKN025
     FM310000 23008KT P6SM SCT250
     FM310500 VRB03KT 4SM BR SCT007
     FM310700 VRB03KT 2SM BR BKN015
      TEMPO 3108/3112 BKN007=



000
FTUS43 KLOT 301400 AAA
TAFRFD
TAF AMD
KRFD 301417Z 3014/3112 21007KT P6SM VCSH SCT011 BKN025 OVC045
     FM301500 22012G18KT P6SM BKN025
     FM310100 26004KT P6SM SCT250
     FM310500 VRB03KT 4SM BR SCT250
     FM310700 VRB03KT 2SM BR SCT007
      TEMPO 3108/3112 BKN007=



000
FTUS43 KLOT 301400 AAA
TAFMDW
TAF AMD
KMDW 301417Z 3014/3112 21010KT P6SM BKN015 OVC150
     FM301600 22012G18KT P6SM BKN025
     FM310100 23008KT P6SM BKN250
     FM310500 VRB03KT 4SM BR SCT007
     FM310800 VRB03KT 2SM BR BKN015
      TEMPO 3108/3112 OVC007=



000
FTUS43 KLOT 301100 CCB
TAFORD
TAF COR
KORD 301147Z 3012/3118 20010KT P6SM FEW025 OVC080
      TEMPO 3012/3015 3SM -TSRA BR BKN015CB OVC060
     FM301500 22012G18KT P6SM BKN035
     FM310100 23006KT P6SM BKN250
     FM310500 VRB03KT 4SM BR SCT250
     FM310800 VRB03KT 2SM BR SCT007
      TEMPO 3108/3112 OVC007
     FM311500 23005KT P6SM SCT025=



000
FTUS43 KLOT 301100 CCA
TAFDPA
TAF COR
KDPA 301146Z 3012/3112 20010KT P6SM FEW015 OVC080
      TEMPO 3012/3014 2SM TSRA BR BKN009 BKN015CB OVC060
     FM301400 22012G18KT P6SM BKN035
      TEMPO 3014/3018 4SM -TSRA BR SCT030CB BKN035
     FM310000 23008KT P6SM SCT250
     FM310500 VRB03KT 4SM BR SCT007
     FM310700 VRB03KT 2SM BR BKN015
      TEMPO 3108/3112 BKN007=



000
FTUS43 KLOT 301100 CCB
TAFRFD
TAF COR
KRFD 301145Z 3012/3112 21010KT P6SM VCSH SCT015 BKN100
     FM301500 22012G18KT P6SM BKN035
     FM310100 26004KT P6SM SCT250
     FM310500 VRB03KT 4SM BR SCT250
     FM310700 VRB03KT 2SM BR SCT007
      TEMPO 3108/3112 BKN007=



000
FTUS43 KLOT 301100 CCA
TAFRFD
TAF COR
KRFD 301144Z 3012/3112 21010KT P6SM VCSH SCT015
     FM301500 22012G18KT P6SM BKN035
     FM310100 26004KT P6SM SCT250
     FM310500 VRB03KT 4SM BR SCT250
     FM310700 VRB03KT 2SM BR SCT007
      TEMPO 3108/3112 BKN007=



000
FTUS43 KLOT 301100 CCA
TAFORD
TAF COR
KORD 301143Z 3012/3118 20010KT P6SM FEW025 OVC080
      TEMPO 3012/3015 3SM -TSRA BR SCT030CB BKN035
     FM301500 22012G18KT P6SM BKN035
     FM310100 23006KT P6SM BKN250
     FM310500 VRB03KT 4SM BR SCT250
     FM310800 VRB03KT 2SM BR SCT007
      TEMPO 3108/3112 OVC007
     FM311500 23005KT P6SM SCT025=



000
FTUS43 KLOT 301100
TAFGYY
TAF
KGYY 301140Z 3012/3112 18008KT P6SM VCSH FEW040 OVC080
     FM301500 22012G18KT P6SM VCTS BKN035CB
      TEMPO 3015/3019 4SM -TSRA BR SCT030CB BKN035
     FM310100 22007KT P6SM BKN250
     FM310500 VRB03KT 4SM BR SCT007
     FM310800 VRB03KT 2SM BR BKN015
      TEMPO 3108/3112 BKN007=



000
FTUS43 KLOT 301100
TAFMDW
TAF
KMDW 301140Z 3012/3112 20011KT P6SM FEW025 OVC080
     FM301400 22012G18KT P6SM BKN035
      TEMPO 3014/3018 4SM -TSRA BR SCT030CB BKN035
     FM310100 23008KT P6SM BKN250
     FM310500 VRB03KT 4SM BR SCT007
     FM310800 VRB03KT 2SM BR BKN015
      TEMPO 3108/3112 OVC007=



000
FTUS43 KLOT 301100
TAFRFD
TAF
KRFD 301140Z 3012/3112 21010KT P6SM VCSH BKN015
     FM301500 22012G18KT P6SM BKN035
     FM310100 26004KT P6SM SCT250
     FM310500 VRB03KT 4SM BR SCT250
     FM310700 VRB03KT 2SM BR SCT007
      TEMPO 3108/3112 BKN007=



000
FTUS43 KLOT 301100
TAFGYY
TAF
KGYY 301140Z 3012/3112 18008KT P6SM VCSH FEW040 OVC080
     FM301500 22012G18KT P6SM VCTS BKN035CB
      TEMPO 3015/3019 4SM -TSRA BR SCT030CB BKN035
     FM310100 22007KT P6SM BKN250
     FM310500 VRB03KT 4SM BR SCT007
     FM310800 VRB03KT 2SM BR BKN015
      TEMPO 3108/3112 BKN007=



000
FTUS43 KLOT 301100
TAFDPA
TAF
KDPA 301140Z 3012/3112 20010KT P6SM FEW015 OVC080
     FM301400 22012G18KT P6SM BKN035
      TEMPO 3014/3018 4SM -TSRA BR SCT030CB BKN035
     FM310000 23008KT P6SM SCT250
     FM310500 VRB03KT 4SM BR SCT007
     FM310700 VRB03KT 2SM BR BKN015
      TEMPO 3108/3112 BKN007=



000
FTUS43 KLOT 301100
TAFORD
TAF
KORD 301140Z 3012/3118 20010KT P6SM FEW025 OVC080
     FM301400 22012G18KT P6SM BKN035
      TEMPO 3014/3018 4SM -TSRA BR SCT030CB BKN035
     FM310100 23006KT P6SM BKN250
     FM310500 VRB03KT 4SM BR SCT250
     FM310800 VRB03KT 2SM BR SCT007
      TEMPO 3108/3112 OVC007
     FM311500 23005KT P6SM SCT025=



000
FTUS43 KLOT 300900 AAB
TAFRFD
TAF AMD
KRFD 300949Z 3010/3106 20010KT P6SM VCSH FEW020 BKN080
     FM301030 21012G18KT 6SM -TSRA BR SCT050CB OVC080
     FM301130 21010KT P6SM VCSH SCT040 BKN080
     FM301500 22012G20KT P6SM BKN035
      TEMPO 3015/3018 4SM -TSRA BR SCT030CB BKN035
     FM310100 26004KT P6SM SCT250=



000
FTUS43 KLOT 300800 AAA
TAFRFD
TAF AMD
KRFD 300848Z 3009/3106 20010KT P6SM VCSH FEW020 BKN080
     FM301500 22012G20KT P6SM BKN035
      TEMPO 3015/3018 4SM -TSRA BR SCT030CB BKN035
     FM310100 26004KT P6SM SCT250=



000
FTUS43 KLOT 300800 AAA
TAFGYY
TAF AMD
KGYY 300848Z 3009/3106 18008KT P6SM VCSH FEW040 OVC080
     FM301600 22012G20KT P6SM VCTS BKN035CB
      TEMPO 3016/3019 4SM -TSRA BR SCT030CB BKN035
     FM310100 22007KT P6SM BKN250=



000
FTUS43 KLOT 300800 AAA
TAFMDW
TAF AMD
KMDW 300848Z 3009/3106 20011KT P6SM FEW040 OVC080
     FM301500 22012G20KT P6SM BKN035
      TEMPO 3015/3018 4SM -TSRA BR SCT030CB BKN035
     FM310100 23008KT P6SM BKN250=



000
FTUS43 KLOT 300800 AAA
TAFORD
TAF AMD
KORD 300848Z 3009/3112 20011KT P6SM FEW040 OVC080
     FM301500 22012G20KT P6SM BKN035
      TEMPO 3015/3018 4SM -TSRA BR SCT030CB BKN035
     FM310100 23006KT P6SM BKN300
     FM310800 VRB03KT 4SM BR BKN100=



000
FTUS43 KLOT 300800 AAA
TAFGYY
TAF AMD
KGYY 300848Z 3009/3106 18008KT P6SM VCSH FEW040 OVC080
     FM301600 22012G20KT P6SM VCTS BKN035CB
      TEMPO 3016/3019 4SM -TSRA BR SCT030CB BKN035
     FM310100 22007KT P6SM BKN250=



000
FTUS43 KLOT 300800 AAA
TAFDPA
TAF AMD
KDPA 300848Z 3009/3106 20010KT P6SM FEW040 OVC080
     FM301500 22012G20KT P6SM BKN035
      TEMPO 3015/3018 4SM -TSRA BR SCT030CB BKN035
     FM310000 23008KT P6SM SCT250=



000
FTUS43 KLOT 300500
TAFMDW
TAF
KMDW 300538Z 3006/3106 19009KT P6SM SCT250
      TEMPO 3006/3007 -SHRA OVC040
     FM300700 20009KT P6SM SCT040 BKN250
     FM301600 22012G20KT P6SM BKN035 PROB30 3016/3020 5SM -TSRA
      BKN030CB
     FM310100 23008KT P6SM BKN250=



000
FTUS43 KLOT 300500
TAFDPA
TAF
KDPA 300538Z 3006/3106 18009KT P6SM SCT250
      TEMPO 3006/3007 -SHRA OVC040
     FM300700 20009KT P6SM SCT040 BKN250
     FM301600 22012G20KT P6SM BKN035 PROB30 3016/3020 5SM -TSRA
      BKN030CB
     FM310000 23008KT P6SM SCT250=



000
FTUS43 KLOT 300500
TAFGYY
TAF
KGYY 300538Z 3006/3106 16010KT P6SM SCT250
     FM300630 20009KT P6SM VCSH SCT040 BKN250
     FM301600 22012G20KT P6SM VCTS BKN035CB PROB30 3017/3021 5SM
      -TSRA BKN030CB
     FM310100 22007KT P6SM BKN250=



000
FTUS43 KLOT 300500
TAFORD
TAF
KORD 300538Z 3006/3112 19010KT P6SM SCT040 SCT250
      TEMPO 3006/3007 -SHRA OVC040
     FM300700 18009KT P6SM SCT040 BKN250
     FM301600 22012G20KT P6SM BKN035 PROB30 3016/3020 5SM -TSRA
      BKN030CB
     FM310100 23006KT P6SM BKN300
     FM310800 VRB03KT 4SM BR BKN100=



000
FTUS43 KLOT 300500
TAFGYY
TAF
KGYY 300538Z 3006/3106 16010KT P6SM SCT250
     FM300630 20009KT P6SM VCSH SCT040 BKN250
     FM301600 22012G20KT P6SM VCTS BKN035CB PROB30 3017/3021 5SM
      -TSRA BKN030CB
     FM310100 22007KT P6SM BKN250=



000
FTUS43 KLOT 300500
TAFRFD
TAF
KRFD 300538Z 3006/3106 20009KT P6SM VCSH FEW035 BKN060
     FM301500 23011KT P6SM SCT040
     FM301600 22012G20KT P6SM BKN035 PROB30 3016/3020 5SM -TSRA
      BKN030CB
     FM310100 26004KT P6SM SCT250=



000
FTUS43 KLOT 300300 AAA
TAFMDW
TAF AMD
KMDW 300333Z 3004/3024 17009KT P6SM SCT250
      TEMPO 3006/3007 -SHRA OVC040
     FM300700 20009KT P6SM SCT040 BKN250
     FM301600 22012G20KT P6SM BKN035 PROB30 3016/3019 5SM -TSRA
      BKN030CB=



000
FTUS43 KLOT 300300 AAA
TAFDPA
TAF AMD
KDPA 300333Z 3004/3024 17009KT P6SM SCT250
      TEMPO 3005/3007 -SHRA OVC040
     FM300700 20009KT P6SM SCT040 BKN250
     FM301600 22012G20KT P6SM BKN035 PROB30 3016/3019 5SM -TSRA
      BKN030CB=



000
FTUS43 KLOT 300300 AAA
TAFGYY
TAF AMD
KGYY 300333Z 3004/3024 16010KT P6SM SCT250
     FM300630 20009KT P6SM VCSH SCT040 BKN250
     FM301600 22012G20KT P6SM VCTS BKN035CB PROB30 3017/3021 5SM
      -TSRA BKN030CB=



000
FTUS43 KLOT 300300 AAB
TAFORD
TAF AMD
KORD 300333Z 3004/3106 17010KT P6SM SCT040 SCT250
      TEMPO 3006/3007 -SHRA OVC040
     FM300700 18009KT P6SM SCT040 BKN250
     FM301600 22012G20KT P6SM BKN035 PROB30 3016/3019 5SM -TSRA
      BKN030CB
     FM310100 23006KT P6SM BKN300=



000
FTUS43 KLOT 300300 AAB
TAFRFD
TAF AMD
KRFD 300333Z 3004/3024 17010KT P6SM FEW030 SCT080
     FM300400 20009KT P6SM VCSH FEW035 BKN060
     FM301500 23011KT P6SM SCT040=



000
FTUS43 KLOT 300100 AAA
TAFORD
TAF AMD
KORD 300102Z 3001/3106 16011KT P6SM SCT040 SCT250
     FM300150 16010KT P6SM -SHRA VCTS OVC040CB
     FM300220 17010KT P6SM SCT040 SCT250
     FM300500 20009KT P6SM SCT040 BKN250
      TEMPO 3005/3007 5SM -SHRA OVC040
     FM301600 22012G20KT P6SM BKN035 PROB30 3016/3019 5SM -TSRA
      BKN030CB
     FM310100 23006KT P6SM BKN300=



000
FTUS43 KLOT 300000 AAA
TAFRFD
TAF AMD
KRFD 300023Z 3000/3024 17010KT P6SM FEW030 SCT080
      TEMPO 3001/3002 5SM -TSRA OVC030CB
     FM300400 20009KT P6SM VCSH FEW035 BKN060
      TEMPO 3004/3006 5SM -SHRA OVC040
     FM301500 23011KT P6SM SCT040=



000
FTUS43 KLOT 292300
TAFGYY
TAF
KGYY 292325Z 3000/3024 16010KT P6SM SCT250
     FM300500 20009KT P6SM SCT040 BKN250
      TEMPO 3006/3008 5SM -SHRA OVC040
     FM301600 22012G20KT P6SM VCTS BKN035CB PROB30 3017/3021 5SM
      -TSRA BKN030CB=



000
FTUS43 KLOT 292300
TAFMDW
TAF
KMDW 292325Z 3000/3024 17009KT P6SM SCT250
     FM300500 20009KT P6SM SCT040 BKN250
      TEMPO 3005/3007 5SM -SHRA OVC040
     FM301600 22012G20KT P6SM BKN035 PROB30 3016/3019 5SM -TSRA
      BKN030CB=



000
FTUS43 KLOT 292300
TAFDPA
TAF
KDPA 292325Z 3000/3024 17009KT P6SM SCT250
     FM300500 20009KT P6SM SCT040 BKN250
      TEMPO 3005/3007 5SM -SHRA OVC040
     FM301600 22012G20KT P6SM BKN035 PROB30 3016/3019 5SM -TSRA
      BKN030CB=



000
FTUS43 KLOT 292300
TAFRFD
TAF
KRFD 292325Z 3000/3024 17010KT P6SM FEW030 SCT080
     FM300400 20009KT P6SM VCSH FEW035 BKN060
      TEMPO 3004/3006 5SM -SHRA OVC040
     FM301500 23011KT P6SM SCT040=



000
FTUS43 KLOT 292300
TAFORD
TAF
KORD 292325Z 3000/3106 18009KT P6SM SCT250
     FM300500 20009KT P6SM SCT040 BKN250
      TEMPO 3005/3007 5SM -SHRA OVC040
     FM301600 22012G20KT P6SM BKN035 PROB30 3016/3019 5SM -TSRA
      BKN030CB
     FM310100 23006KT P6SM BKN300=



000
FTUS43 KLOT 292300
TAFGYY
TAF
KGYY 292325Z 3000/3024 16010KT P6SM SCT250
     FM300500 20009KT P6SM SCT040 BKN250
      TEMPO 3006/3008 5SM -SHRA OVC040
     FM301600 22012G20KT P6SM VCTS BKN035CB PROB30 3017/3021 5SM
      -TSRA BKN030CB=



000
FTUS43 KLOT 292200 AAC
TAFRFD
TAF AMD
KRFD 292214Z 2922/3018 17010KT P6SM FEW030 SCT080
     FM300430 20009KT P6SM VCSH FEW035 BKN060
      TEMPO 3006/3010 -TSRA BKN035CB
     FM301400 22013G21KT P6SM VCSH BKN035=



000
FTUS43 KLOT 292200 AAC
TAFGYY
TAF AMD
KGYY 292214Z 2922/3018 14010KT P6SM VCTS BKN030CB BKN080
     FM300000 16010KT P6SM FEW035 SCT080
     FM300600 20009KT P6SM VCSH FEW035 BKN060
      TEMPO 3008/3012 -TSRA BKN035CB
     FM301600 22013G21KT P6SM VCSH BKN035=



000
FTUS43 KLOT 292200 AAD
TAFMDW
TAF AMD
KMDW 292214Z 2922/3018 17012KT P6SM VCTS SCT030CB SCT080
     FM300030 17009KT P6SM SCT250
     FM300500 20009KT P6SM VCSH FEW035 BKN060
      TEMPO 3008/3012 -TSRA BKN035CB
     FM301600 22013G21KT P6SM VCSH BKN035=



000
FTUS43 KLOT 292200 AAC
TAFGYY
TAF AMD
KGYY 292214Z 2922/3018 14010KT P6SM VCTS BKN030CB BKN080
     FM300000 16010KT P6SM FEW035 SCT080
     FM300600 20009KT P6SM VCSH FEW035 BKN060
      TEMPO 3008/3012 -TSRA BKN035CB
     FM301600 22013G21KT P6SM VCSH BKN035=



000
FTUS43 KLOT 292200 AAD
TAFORD
TAF AMD
KORD 292214Z 2922/3024 17010KT P6SM VCTS SCT030CB SCT080
     FM300030 17009KT P6SM SCT250
     FM300500 20009KT P6SM VCSH FEW035 BKN060
      TEMPO 3008/3012 -TSRA BKN035CB
     FM301600 22013G21KT P6SM VCSH BKN035=



000
FTUS43 KLOT 292200 AAC
TAFDPA
TAF AMD
KDPA 292214Z 2922/3018 16010KT P6SM VCTS BKN030CB BKN080
     FM300000 16010KT P6SM FEW035 SCT080
     FM300430 20009KT P6SM VCSH FEW035 BKN060
      TEMPO 3008/3012 -TSRA BKN035CB
     FM301600 22013G21KT P6SM VCSH BKN035=



000
FTUS43 KLOT 292100 AAC
TAFMDW
TAF AMD
KMDW 292119Z 2921/3018 17012KT P6SM VCTS FEW030 BKN035CB
     FM300030 17010KT P6SM SCT250
     FM300600 20009KT P6SM VCSH FEW035 BKN060
      TEMPO 3008/3012 -TSRA BKN035CB
     FM301600 22013G21KT P6SM VCSH BKN035=



000
FTUS43 KLOT 292100 AAC
TAFORD
TAF AMD
KORD 292113Z 2921/3024 17012KT P6SM FEW030 SCT050
     FM292230 17010KT P6SM VCTS SCT030CB SCT080
     FM300030 18009KT P6SM SCT250
     FM300600 20009KT P6SM VCSH FEW035 BKN060
      TEMPO 3008/3012 -TSRA BKN035CB
     FM301600 22013G21KT P6SM VCSH BKN035=



000
FTUS43 KLOT 291900 AAB
TAFGYY
TAF AMD
KGYY 291948Z 2920/3018 17012G18KT P6SM VCTS BKN035CB BKN080
     FM300000 16010KT P6SM FEW035 SCT080
     FM300600 20009KT P6SM VCSH FEW035 BKN060
      TEMPO 3008/3012 -TSRA BKN035CB
     FM301600 22013G21KT P6SM VCSH BKN035=



000
FTUS43 KLOT 291900 AAB
TAFDPA
TAF AMD
KDPA 291948Z 2920/3018 18012G18KT P6SM VCTS BKN035CB BKN080
     FM292300 17010KT P6SM SCT035 SCT080
     FM300600 20009KT P6SM VCSH FEW035 BKN060
      TEMPO 3008/3012 -TSRA BKN035CB
     FM301600 22013G21KT P6SM VCSH BKN035=



000
FTUS43 KLOT 291900 AAB
TAFORD
TAF AMD
KORD 291948Z 2920/3024 18011G17KT P6SM VCTS FEW030 BKN035CB
     FM292300 17010KT P6SM SCT035 SCT080
     FM300600 20009KT P6SM VCSH FEW035 BKN060
      TEMPO 3008/3012 -TSRA BKN035CB
     FM301600 22013G21KT P6SM VCSH BKN035=



000
FTUS43 KLOT 291900 AAB
TAFRFD
TAF AMD
KRFD 291948Z 2920/3018 19014G20KT P6SM FEW060
     FM300200 16010KT P6SM SCT080
     FM300500 20009KT P6SM VCSH FEW035 BKN060
      TEMPO 3006/3010 -TSRA BKN035CB
     FM301400 22013G21KT P6SM VCSH BKN035=



000
FTUS43 KLOT 291900 AAB
TAFGYY
TAF AMD
KGYY 291948Z 2920/3018 17012G18KT P6SM VCTS BKN035CB BKN080
     FM300000 16010KT P6SM FEW035 SCT080
     FM300600 20009KT P6SM VCSH FEW035 BKN060
      TEMPO 3008/3012 -TSRA BKN035CB
     FM301600 22013G21KT P6SM VCSH BKN035=



000
FTUS43 KLOT 291900 AAB
TAFMDW
TAF AMD
KMDW 291948Z 2920/3018 18011G17KT P6SM VCTS FEW030 BKN035CB
     FM292300 17010KT P6SM SCT035 SCT080
     FM300600 20009KT P6SM VCSH FEW035 BKN060
      TEMPO 3008/3012 -TSRA BKN035CB
     FM301600 22013G21KT P6SM VCSH BKN035=



000
FTUS43 KLOT 291900 AAA
TAFRFD
TAF AMD
KRFD 291925Z 2919/3018 18014KT P6SM SCT060 BKN120
     FM292000 19013G20KT P6SM FEW060
     FM300200 16010KT P6SM SCT080
     FM300500 20009KT P6SM VCSH FEW035 BKN060
      TEMPO 3006/3010 -TSRA BKN035CB
     FM301400 22013G21KT P6SM VCSH BKN035=



000
FTUS43 KLOT 291900 AAA
TAFMDW
TAF AMD
KMDW 291925Z 2919/3018 20010G18KT P6SM FEW030 SCT080 BKN120
     FM292000 18012G18KT P6SM VCTS BKN035CB BKN080
     FM292300 17010KT P6SM SCT035 SCT080
     FM300600 20009KT P6SM VCSH FEW035 BKN060
      TEMPO 3008/3012 -TSRA BKN035CB
     FM301600 22013G21KT P6SM VCSH BKN035=



000
FTUS43 KLOT 291900 AAA
TAFDPA
TAF AMD
KDPA 291925Z 2919/3018 20010G18KT P6SM FEW030 SCT080 BKN120
     FM292000 18012G18KT P6SM VCTS BKN035CB BKN080
     FM292300 17010KT P6SM SCT035 SCT080
     FM300600 20009KT P6SM VCSH FEW035 BKN060
      TEMPO 3008/3012 -TSRA BKN035CB
     FM301600 22013G21KT P6SM VCSH BKN035=



000
FTUS43 KLOT 291900 AAA
TAFGYY
TAF AMD
KGYY 291925Z 2919/3018 17011KT P6SM FEW030 SCT080 BKN120
     FM292000 18012G20KT P6SM VCTS BKN035CB BKN080
     FM300000 17010KT P6SM FEW035 SCT080
     FM300600 20009KT P6SM VCSH FEW035 BKN060
      TEMPO 3008/3012 -TSRA BKN035CB
     FM301600 22013G21KT P6SM VCSH BKN035=



000
FTUS43 KLOT 291900 AAA
TAFGYY
TAF AMD
KGYY 291925Z 2919/3018 17011KT P6SM FEW030 SCT080 BKN120
     FM292000 18012G20KT P6SM VCTS BKN035CB BKN080
     FM300000 17010KT P6SM FEW035 SCT080
     FM300600 20009KT P6SM VCSH FEW035 BKN060
      TEMPO 3008/3012 -TSRA BKN035CB
     FM301600 22013G21KT P6SM VCSH BKN035=



000
FTUS43 KLOT 291900 AAA
TAFORD
TAF AMD
KORD 291925Z 2919/3024 20010G18KT P6SM FEW030 SCT080 BKN120
     FM292000 18012G18KT P6SM VCTS BKN035CB BKN080
     FM292300 17010KT P6SM SCT035 SCT080
     FM300600 20009KT P6SM VCSH FEW035 BKN060
      TEMPO 3008/3012 -TSRA BKN035CB
     FM301600 22013G21KT P6SM VCSH BKN035=



    US Dept of Commerce
    National Oceanic and Atmospheric Administration
    National Weather Service
    1325 East West Highway
    Silver Spring, MD 20910
    Page Author: NWS Internet Services Team
Disclaimer
Information Quality
Credits
Glossary
Privacy Policy
Freedom of Information Act (FOIA)
About Us
Career Opportunities